sensor_id;sensor_type;location;lat;lon;timestamp;pressure;altitude;pressure_sealevel;temperature;humidity
64200;BME280;50516;52.272;5.136;2023-04-25T00:01:08;101083.75;;;7.40;84.75
64200;BME280;50516;52.272;5.136;2023-04-25T00:03:34;101093.44;;;7.48;84.83
64200;BME280;50516;52.272;5.136;2023-04-25T00:06:00;101085.34;;;7.53;86.20
64200;BME280;50516;52.272;5.136;2023-04-25T00:08:29;101084.16;;;7.49;85.31
64200;BME280;50516;52.272;5.136;2023-04-25T00:10:55;101088.13;;;7.41;85.46
64200;BME280;50516;52.272;5.136;2023-04-25T00:13:21;101092.59;;;7.47;85.85
64200;BME280;50516;52.272;5.136;2023-04-25T00:15:47;101089.81;;;7.59;86.35
64200;BME280;50516;52.272;5.136;2023-04-25T00:18:13;101082.69;;;7.58;86.43
64200;BME280;50516;52.272;5.136;2023-04-25T00:20:39;101091.56;;;7.65;86.24
64200;BME280;50516;52.272;5.136;2023-04-25T00:23:05;101091.94;;;7.57;86.46
64200;BME280;50516;52.272;5.136;2023-04-25T00:25:30;101090.81;;;7.53;86.62
64200;BME280;50516;52.272;5.136;2023-04-25T00:27:55;101095.81;;;7.44;85.81
64200;BME280;50516;52.272;5.136;2023-04-25T00:30:20;101098.31;;;7.46;86.83
64200;BME280;50516;52.272;5.136;2023-04-25T00:32:46;101097.53;;;7.34;86.16
64200;BME280;50516;52.272;5.136;2023-04-25T00:35:11;101092.13;;;7.22;86.06
64200;BME280;50516;52.272;5.136;2023-04-25T00:37:36;101094.19;;;7.15;86.41
64200;BME280;50516;52.272;5.136;2023-04-25T00:40:04;101100.03;;;7.06;85.52
64200;BME280;50516;52.272;5.136;2023-04-25T00:42:31;101099.84;;;6.96;85.00
64200;BME280;50516;52.272;5.136;2023-04-25T00:44:58;101112.50;;;7.02;84.73
64200;BME280;50516;52.272;5.136;2023-04-25T00:47:23;101105.78;;;6.81;84.31
64200;BME280;50516;52.272;5.136;2023-04-25T00:49:49;101108.28;;;6.83;84.73
64200;BME280;50516;52.272;5.136;2023-04-25T00:52:14;101103.19;;;6.86;84.72
64200;BME280;50516;52.272;5.136;2023-04-25T00:54:40;101108.69;;;7.03;84.29
64200;BME280;50516;52.272;5.136;2023-04-25T00:57:05;101107.50;;;6.99;84.58
64200;BME280;50516;52.272;5.136;2023-04-25T00:59:31;101111.00;;;6.83;84.52
64200;BME280;50516;52.272;5.136;2023-04-25T01:01:56;101115.41;;;6.84;84.73
64200;BME280;50516;52.272;5.136;2023-04-25T01:04:22;101112.56;;;6.79;84.82
64200;BME280;50516;52.272;5.136;2023-04-25T01:06:48;101118.72;;;6.86;84.29
64200;BME280;50516;52.272;5.136;2023-04-25T01:09:13;101106.78;;;6.75;83.80
64200;BME280;50516;52.272;5.136;2023-04-25T01:11:39;101116.50;;;6.59;84.84
64200;BME280;50516;52.272;5.136;2023-04-25T01:14:05;101114.25;;;6.68;84.86
64200;BME280;50516;52.272;5.136;2023-04-25T01:16:31;101112.22;;;6.63;84.71
64200;BME280;50516;52.272;5.136;2023-04-25T01:18:58;101116.25;;;6.72;84.29
64200;BME280;50516;52.272;5.136;2023-04-25T01:21:24;101119.94;;;6.66;84.71
64200;BME280;50516;52.272;5.136;2023-04-25T01:23:52;101121.97;;;6.47;84.91
64200;BME280;50516;52.272;5.136;2023-04-25T01:26:19;101123.41;;;6.50;84.59
64200;BME280;50516;52.272;5.136;2023-04-25T01:28:46;101136.19;;;6.37;84.45
64200;BME280;50516;52.272;5.136;2023-04-25T01:31:12;101129.56;;;6.45;84.98
64200;BME280;50516;52.272;5.136;2023-04-25T01:33:38;101123.16;;;6.39;85.03
64200;BME280;50516;52.272;5.136;2023-04-25T01:36:03;101124.94;;;6.46;85.45
64200;BME280;50516;52.272;5.136;2023-04-25T01:38:29;101124.22;;;6.50;85.31
64200;BME280;50516;52.272;5.136;2023-04-25T01:40:55;101124.69;;;6.47;85.25
64200;BME280;50516;52.272;5.136;2023-04-25T01:43:21;101128.28;;;6.48;85.46
64200;BME280;50516;52.272;5.136;2023-04-25T01:45:47;101129.22;;;6.42;85.75
64200;BME280;50516;52.272;5.136;2023-04-25T01:48:14;101133.69;;;6.36;85.58
64200;BME280;50516;52.272;5.136;2023-04-25T01:50:40;101135.38;;;6.37;85.40
64200;BME280;50516;52.272;5.136;2023-04-25T01:53:06;101137.97;;;6.44;85.89
64200;BME280;50516;52.272;5.136;2023-04-25T01:55:32;101139.16;;;6.36;85.79
64200;BME280;50516;52.272;5.136;2023-04-25T01:57:57;101142.75;;;6.36;85.83
64200;BME280;50516;52.272;5.136;2023-04-25T02:00:23;101143.91;;;6.40;85.77
64200;BME280;50516;52.272;5.136;2023-04-25T02:02:48;101140.72;;;6.44;85.59
64200;BME280;50516;52.272;5.136;2023-04-25T02:05:16;101148.66;;;6.45;85.36
64200;BME280;50516;52.272;5.136;2023-04-25T02:07:41;101152.59;;;6.49;85.19
64200;BME280;50516;52.272;5.136;2023-04-25T02:10:07;101144.13;;;6.39;85.88
64200;BME280;50516;52.272;5.136;2023-04-25T02:12:32;101151.38;;;6.33;85.74
64200;BME280;50516;52.272;5.136;2023-04-25T02:14:57;101141.06;;;6.47;85.13
64200;BME280;50516;52.272;5.136;2023-04-25T02:17:23;101141.44;;;6.51;85.06
64200;BME280;50516;52.272;5.136;2023-04-25T02:19:48;101144.88;;;6.46;85.20
64200;BME280;50516;52.272;5.136;2023-04-25T02:22:13;101145.69;;;6.58;85.30
64200;BME280;50516;52.272;5.136;2023-04-25T02:24:39;101147.13;;;6.61;85.62
64200;BME280;50516;52.272;5.136;2023-04-25T02:27:04;101144.63;;;6.60;85.25
64200;BME280;50516;52.272;5.136;2023-04-25T02:29:29;101140.94;;;6.66;85.09
64200;BME280;50516;52.272;5.136;2023-04-25T02:31:55;101153.63;;;6.60;85.30
64200;BME280;50516;52.272;5.136;2023-04-25T02:34:21;101152.31;;;6.39;84.87
64200;BME280;50516;52.272;5.136;2023-04-25T02:36:47;101150.56;;;6.45;85.61
64200;BME280;50516;52.272;5.136;2023-04-25T02:39:12;101152.56;;;6.26;85.13
64200;BME280;50516;52.272;5.136;2023-04-25T02:41:37;101148.31;;;6.42;84.48
64200;BME280;50516;52.272;5.136;2023-04-25T02:44:03;101155.06;;;6.27;84.79
64200;BME280;50516;52.272;5.136;2023-04-25T02:46:28;101159.44;;;6.40;84.51
64200;BME280;50516;52.272;5.136;2023-04-25T02:48:53;101166.53;;;6.17;84.83
64200;BME280;50516;52.272;5.136;2023-04-25T02:51:19;101169.38;;;6.22;84.20
64200;BME280;50516;52.272;5.136;2023-04-25T02:53:44;101167.59;;;6.16;84.04
64200;BME280;50516;52.272;5.136;2023-04-25T02:56:09;101169.63;;;6.09;84.23
64200;BME280;50516;52.272;5.136;2023-04-25T02:58:35;101169.97;;;6.13;84.14
64200;BME280;50516;52.272;5.136;2023-04-25T03:01:00;101169.00;;;6.07;84.39
64200;BME280;50516;52.272;5.136;2023-04-25T03:03:25;101162.84;;;6.12;84.40
64200;BME280;50516;52.272;5.136;2023-04-25T03:05:51;101168.06;;;6.01;84.68
64200;BME280;50516;52.272;5.136;2023-04-25T03:08:17;101161.25;;;5.92;84.71
64200;BME280;50516;52.272;5.136;2023-04-25T03:10:43;101159.06;;;6.01;84.56
64200;BME280;50516;52.272;5.136;2023-04-25T03:13:09;101165.50;;;6.30;84.28
64200;BME280;50516;52.272;5.136;2023-04-25T03:15:35;101167.13;;;6.31;83.73
64200;BME280;50516;52.272;5.136;2023-04-25T03:18:00;101168.91;;;6.26;83.60
64200;BME280;50516;52.272;5.136;2023-04-25T03:20:26;101175.00;;;6.39;83.60
64200;BME280;50516;52.272;5.136;2023-04-25T03:22:52;101178.78;;;6.38;82.98
64200;BME280;50516;52.272;5.136;2023-04-25T03:25:18;101183.75;;;6.42;83.11
64200;BME280;50516;52.272;5.136;2023-04-25T03:27:44;101186.72;;;6.40;83.13
64200;BME280;50516;52.272;5.136;2023-04-25T03:30:10;101184.22;;;6.38;83.35
64200;BME280;50516;52.272;5.136;2023-04-25T03:32:37;101185.41;;;6.43;82.60
64200;BME280;50516;52.272;5.136;2023-04-25T03:35:03;101181.28;;;6.64;82.14
64200;BME280;50516;52.272;5.136;2023-04-25T03:37:30;101187.66;;;6.46;81.08
64200;BME280;50516;52.272;5.136;2023-04-25T03:39:56;101193.13;;;6.22;80.32
64200;BME280;50516;52.272;5.136;2023-04-25T03:42:22;101192.03;;;6.23;80.58
64200;BME280;50516;52.272;5.136;2023-04-25T03:44:48;101196.31;;;6.19;81.02
64200;BME280;50516;52.272;5.136;2023-04-25T03:47:14;101189.75;;;6.20;80.66
64200;BME280;50516;52.272;5.136;2023-04-25T03:49:41;101194.69;;;6.42;81.07
64200;BME280;50516;52.272;5.136;2023-04-25T03:52:07;101202.03;;;6.53;80.93
64200;BME280;50516;52.272;5.136;2023-04-25T03:54:32;101196.69;;;6.46;81.42
64200;BME280;50516;52.272;5.136;2023-04-25T03:56:58;101197.41;;;6.42;81.99
64200;BME280;50516;52.272;5.136;2023-04-25T03:59:24;101202.84;;;6.42;82.02
64200;BME280;50516;52.272;5.136;2023-04-25T04:01:51;101192.28;;;6.33;81.99
64200;BME280;50516;52.272;5.136;2023-04-25T04:04:17;101200.34;;;6.28;82.73
64200;BME280;50516;52.272;5.136;2023-04-25T04:06:43;101206.09;;;6.62;81.48
64200;BME280;50516;52.272;5.136;2023-04-25T04:09:09;101204.88;;;6.58;81.21
64200;BME280;50516;52.272;5.136;2023-04-25T04:11:36;101210.19;;;6.76;80.88
64200;BME280;50516;52.272;5.136;2023-04-25T04:14:06;101209.41;;;6.64;81.12
64200;BME280;50516;52.272;5.136;2023-04-25T04:16:32;101202.63;;;6.79;80.90
64200;BME280;50516;52.272;5.136;2023-04-25T04:18:57;101211.50;;;6.86;81.02
64200;BME280;50516;52.272;5.136;2023-04-25T04:21:23;101210.34;;;6.82;81.45
64200;BME280;50516;52.272;5.136;2023-04-25T04:23:49;101222.22;;;6.75;81.43
64200;BME280;50516;52.272;5.136;2023-04-25T04:26:15;101212.94;;;6.53;81.69
64200;BME280;50516;52.272;5.136;2023-04-25T04:28:43;101218.88;;;6.38;82.25
64200;BME280;50516;52.272;5.136;2023-04-25T04:31:12;101224.78;;;6.47;82.01
64200;BME280;50516;52.272;5.136;2023-04-25T04:33:37;101224.09;;;6.39;82.36
64200;BME280;50516;52.272;5.136;2023-04-25T04:36:03;101236.41;;;6.30;83.36
64200;BME280;50516;52.272;5.136;2023-04-25T04:38:29;101237.56;;;6.22;82.73
64200;BME280;50516;52.272;5.136;2023-04-25T04:40:56;101238.81;;;6.08;83.26
64200;BME280;50516;52.272;5.136;2023-04-25T04:43:22;101232.97;;;5.93;82.92
64200;BME280;50516;52.272;5.136;2023-04-25T04:45:48;101231.06;;;5.93;82.75
64200;BME280;50516;52.272;5.136;2023-04-25T04:48:14;101238.72;;;6.15;81.64
64200;BME280;50516;52.272;5.136;2023-04-25T04:50:40;101239.28;;;6.05;79.51
64200;BME280;50516;52.272;5.136;2023-04-25T04:53:06;101238.84;;;6.20;78.27
64200;BME280;50516;52.272;5.136;2023-04-25T04:55:32;101238.78;;;6.27;76.22
64200;BME280;50516;52.272;5.136;2023-04-25T04:57:57;101244.13;;;6.57;75.70
64200;BME280;50516;52.272;5.136;2023-04-25T05:00:23;101253.00;;;6.40;74.85
64200;BME280;50516;52.272;5.136;2023-04-25T05:02:49;101259.41;;;6.34;73.77
64200;BME280;50516;52.272;5.136;2023-04-25T05:05:14;101263.47;;;6.55;73.29
64200;BME280;50516;52.272;5.136;2023-04-25T05:07:40;101263.34;;;6.50;75.27
64200;BME280;50516;52.272;5.136;2023-04-25T05:10:06;101262.28;;;6.51;75.55
64200;BME280;50516;52.272;5.136;2023-04-25T05:12:31;101265.13;;;6.45;77.27
64200;BME280;50516;52.272;5.136;2023-04-25T05:14:57;101269.53;;;6.69;77.31
64200;BME280;50516;52.272;5.136;2023-04-25T05:17:22;101267.19;;;6.85;77.71
64200;BME280;50516;52.272;5.136;2023-04-25T05:19:47;101270.16;;;6.95;77.90
64200;BME280;50516;52.272;5.136;2023-04-25T05:22:13;101272.41;;;6.86;77.93
64200;BME280;50516;52.272;5.136;2023-04-25T05:24:38;101269.19;;;6.89;78.55
64200;BME280;50516;52.272;5.136;2023-04-25T05:27:04;101279.63;;;6.92;78.23
64200;BME280;50516;52.272;5.136;2023-04-25T05:29:30;101283.56;;;6.97;78.09
64200;BME280;50516;52.272;5.136;2023-04-25T05:31:56;101277.84;;;7.10;77.91
64200;BME280;50516;52.272;5.136;2023-04-25T05:34:22;101280.56;;;7.22;77.48
64200;BME280;50516;52.272;5.136;2023-04-25T05:36:52;101285.69;;;7.30;77.19
64200;BME280;50516;52.272;5.136;2023-04-25T05:39:18;101287.25;;;7.66;76.69
64200;BME280;50516;52.272;5.136;2023-04-25T05:41:43;101284.78;;;7.94;75.94
64200;BME280;50516;52.272;5.136;2023-04-25T05:44:09;101292.69;;;8.07;75.75
64200;BME280;50516;52.272;5.136;2023-04-25T05:46:35;101296.56;;;7.94;76.40
64200;BME280;50516;52.272;5.136;2023-04-25T05:49:12;101298.31;;;8.00;77.26
64200;BME280;50516;52.272;5.136;2023-04-25T05:51:39;101306.75;;;7.99;76.63
64200;BME280;50516;52.272;5.136;2023-04-25T05:54:07;101314.47;;;8.02;76.80
64200;BME280;50516;52.272;5.136;2023-04-25T05:56:37;101327.06;;;7.74;77.28
64200;BME280;50516;52.272;5.136;2023-04-25T05:59:11;101322.84;;;7.19;77.55
64200;BME280;50516;52.272;5.136;2023-04-25T06:01:39;101325.47;;;7.26;77.99
64200;BME280;50516;52.272;5.136;2023-04-25T06:04:05;101323.19;;;7.35;78.67
64200;BME280;50516;52.272;5.136;2023-04-25T06:06:33;101330.94;;;7.26;77.91
64200;BME280;50516;52.272;5.136;2023-04-25T06:08:59;101336.72;;;7.29;77.51
64200;BME280;50516;52.272;5.136;2023-04-25T06:11:24;101326.66;;;7.06;78.02
64200;BME280;50516;52.272;5.136;2023-04-25T06:13:50;101335.78;;;7.12;78.09
64200;BME280;50516;52.272;5.136;2023-04-25T06:16:15;101338.53;;;7.24;77.12
64200;BME280;50516;52.272;5.136;2023-04-25T06:18:41;101350.41;;;7.18;76.54
64200;BME280;50516;52.272;5.136;2023-04-25T06:21:07;101348.59;;;7.47;76.18
64200;BME280;50516;52.272;5.136;2023-04-25T06:23:32;101342.84;;;7.84;75.11
64200;BME280;50516;52.272;5.136;2023-04-25T06:25:57;101343.50;;;8.32;73.63
64200;BME280;50516;52.272;5.136;2023-04-25T06:28:23;101339.28;;;8.70;73.61
64200;BME280;50516;52.272;5.136;2023-04-25T06:30:50;101334.31;;;8.84;73.27
64200;BME280;50516;52.272;5.136;2023-04-25T06:33:15;101337.28;;;8.65;73.16
64200;BME280;50516;52.272;5.136;2023-04-25T06:35:41;101342.63;;;8.89;73.44
64200;BME280;50516;52.272;5.136;2023-04-25T06:38:07;101345.56;;;8.70;72.88
64200;BME280;50516;52.272;5.136;2023-04-25T06:40:32;101364.50;;;8.72;73.50
64200;BME280;50516;52.272;5.136;2023-04-25T06:42:57;101360.03;;;8.66;73.91
64200;BME280;50516;52.272;5.136;2023-04-25T06:45:23;101362.94;;;8.76;72.95
64200;BME280;50516;52.272;5.136;2023-04-25T06:47:49;101366.66;;;8.70;73.05
64200;BME280;50516;52.272;5.136;2023-04-25T06:50:14;101374.47;;;8.78;73.27
64200;BME280;50516;52.272;5.136;2023-04-25T06:52:40;101367.25;;;9.06;72.55
64200;BME280;50516;52.272;5.136;2023-04-25T06:55:05;101379.28;;;9.39;71.35
64200;BME280;50516;52.272;5.136;2023-04-25T06:57:31;101383.75;;;9.45;71.42
64200;BME280;50516;52.272;5.136;2023-04-25T06:59:56;101373.31;;;9.42;70.35
64200;BME280;50516;52.272;5.136;2023-04-25T07:02:22;101376.97;;;9.30;68.61
64200;BME280;50516;52.272;5.136;2023-04-25T07:04:47;101381.09;;;9.33;69.47
64200;BME280;50516;52.272;5.136;2023-04-25T07:07:13;101379.72;;;9.30;68.08
64200;BME280;50516;52.272;5.136;2023-04-25T07:09:38;101386.50;;;9.45;68.89
64200;BME280;50516;52.272;5.136;2023-04-25T07:12:04;101380.84;;;9.35;69.12
64200;BME280;50516;52.272;5.136;2023-04-25T07:14:29;101382.28;;;9.20;67.15
64200;BME280;50516;52.272;5.136;2023-04-25T07:16:54;101388.94;;;9.24;68.21
64200;BME280;50516;52.272;5.136;2023-04-25T07:19:22;101393.06;;;9.10;68.60
64200;BME280;50516;52.272;5.136;2023-04-25T07:21:49;101395.72;;;8.88;66.95
64200;BME280;50516;52.272;5.136;2023-04-25T07:24:14;101399.66;;;8.63;67.67
64200;BME280;50516;52.272;5.136;2023-04-25T07:26:39;101394.31;;;8.85;68.59
64200;BME280;50516;52.272;5.136;2023-04-25T07:29:05;101394.72;;;8.94;66.88
64200;BME280;50516;52.272;5.136;2023-04-25T07:31:30;101395.53;;;8.94;67.04
64200;BME280;50516;52.272;5.136;2023-04-25T07:33:56;101400.81;;;9.13;66.91
64200;BME280;50516;52.272;5.136;2023-04-25T07:36:21;101403.19;;;9.26;66.54
64200;BME280;50516;52.272;5.136;2023-04-25T07:38:47;101397.00;;;9.70;64.59
64200;BME280;50516;52.272;5.136;2023-04-25T07:41:12;101407.91;;;10.31;62.97
64200;BME280;50516;52.272;5.136;2023-04-25T07:43:38;101411.19;;;10.28;62.29
64200;BME280;50516;52.272;5.136;2023-04-25T07:46:04;101426.94;;;9.04;64.03
64200;BME280;50516;52.272;5.136;2023-04-25T07:48:29;101444.59;;;8.38;65.21
64200;BME280;50516;52.272;5.136;2023-04-25T07:50:54;101432.13;;;8.31;67.15
64200;BME280;50516;52.272;5.136;2023-04-25T07:53:20;101431.53;;;8.29;69.34
64200;BME280;50516;52.272;5.136;2023-04-25T07:55:45;101429.25;;;8.37;69.76
64200;BME280;50516;52.272;5.136;2023-04-25T07:58:11;101436.53;;;8.32;68.56
64200;BME280;50516;52.272;5.136;2023-04-25T08:00:36;101443.72;;;8.09;70.85
64200;BME280;50516;52.272;5.136;2023-04-25T08:03:02;101443.56;;;8.28;71.37
64200;BME280;50516;52.272;5.136;2023-04-25T08:05:28;101437.94;;;8.34;70.97
64200;BME280;50516;52.272;5.136;2023-04-25T08:07:54;101435.66;;;8.55;70.86
64200;BME280;50516;52.272;5.136;2023-04-25T08:10:21;101438.91;;;9.14;70.60
64200;BME280;50516;52.272;5.136;2023-04-25T08:12:48;101445.91;;;9.22;68.16
64200;BME280;50516;52.272;5.136;2023-04-25T08:15:14;101446.63;;;9.35;68.09
64200;BME280;50516;52.272;5.136;2023-04-25T08:17:39;101446.88;;;9.50;67.82
64200;BME280;50516;52.272;5.136;2023-04-25T08:20:05;101447.41;;;9.86;67.69
64200;BME280;50516;52.272;5.136;2023-04-25T08:22:31;101456.03;;;10.17;67.11
64200;BME280;50516;52.272;5.136;2023-04-25T08:24:56;101457.94;;;9.94;64.24
64200;BME280;50516;52.272;5.136;2023-04-25T08:27:22;101451.00;;;10.09;61.55
64200;BME280;50516;52.272;5.136;2023-04-25T08:29:49;101455.34;;;10.04;62.75
64200;BME280;50516;52.272;5.136;2023-04-25T08:32:15;101460.97;;;9.76;59.79
64200;BME280;50516;52.272;5.136;2023-04-25T08:34:40;101461.84;;;9.59;61.25
64200;BME280;50516;52.272;5.136;2023-04-25T08:37:08;101474.63;;;9.71;61.40
64200;BME280;50516;52.272;5.136;2023-04-25T08:39:35;101480.06;;;9.87;60.04
64200;BME280;50516;52.272;5.136;2023-04-25T08:42:05;101489.22;;;9.93;58.29
64200;BME280;50516;52.272;5.136;2023-04-25T08:44:33;101485.47;;;10.38;56.02
64200;BME280;50516;52.272;5.136;2023-04-25T08:46:59;101493.88;;;10.54;57.39
64200;BME280;50516;52.272;5.136;2023-04-25T08:49:25;101484.91;;;10.86;56.04
64200;BME280;50516;52.272;5.136;2023-04-25T08:51:52;101491.09;;;10.98;53.97
64200;BME280;50516;52.272;5.136;2023-04-25T08:54:20;101493.72;;;10.66;54.60
64200;BME280;50516;52.272;5.136;2023-04-25T08:56:48;101495.75;;;10.31;55.02
64200;BME280;50516;52.272;5.136;2023-04-25T08:59:14;101497.47;;;10.15;55.90
64200;BME280;50516;52.272;5.136;2023-04-25T09:01:39;101513.00;;;9.71;57.01
64200;BME280;50516;52.272;5.136;2023-04-25T09:04:05;101513.31;;;9.91;57.10
64200;BME280;50516;52.272;5.136;2023-04-25T09:06:31;101533.25;;;10.03;58.13
64200;BME280;50516;52.272;5.136;2023-04-25T09:09:07;101535.19;;;9.69;61.00
64200;BME280;50516;52.272;5.136;2023-04-25T09:11:33;101543.25;;;9.76;60.59
64200;BME280;50516;52.272;5.136;2023-04-25T09:14:16;101547.41;;;9.95;59.80
64200;BME280;50516;52.272;5.136;2023-04-25T09:19:26;101558.38;;;9.95;58.89
64200;BME280;50516;52.272;5.136;2023-04-25T09:21:59;101551.47;;;9.93;59.21
64200;BME280;50516;52.272;5.136;2023-04-25T09:24:38;101562.09;;;10.06;57.14
64200;BME280;50516;52.272;5.136;2023-04-25T09:27:08;101553.00;;;10.39;56.18
64200;BME280;50516;52.272;5.136;2023-04-25T09:29:38;101561.81;;;10.64;56.47
64200;BME280;50516;52.272;5.136;2023-04-25T09:32:20;101554.66;;;10.40;56.14
64200;BME280;50516;52.272;5.136;2023-04-25T09:34:47;101563.09;;;10.34;53.98
64200;BME280;50516;52.272;5.136;2023-04-25T09:37:17;101562.44;;;10.49;54.13
64200;BME280;50516;52.272;5.136;2023-04-25T09:39:45;101558.97;;;11.03;54.89
64200;BME280;50516;52.272;5.136;2023-04-25T09:42:13;101565.13;;;11.10;54.85
64200;BME280;50516;52.272;5.136;2023-04-25T09:44:42;101563.91;;;11.01;55.41
64200;BME280;50516;52.272;5.136;2023-04-25T09:47:17;101565.38;;;11.08;52.63
64200;BME280;50516;52.272;5.136;2023-04-25T09:49:43;101564.34;;;11.42;53.73
64200;BME280;50516;52.272;5.136;2023-04-25T09:52:13;101574.25;;;11.43;53.88
64200;BME280;50516;52.272;5.136;2023-04-25T09:54:40;101584.63;;;11.36;55.11
64200;BME280;50516;52.272;5.136;2023-04-25T09:57:22;101581.56;;;10.83;52.84
64200;BME280;50516;52.272;5.136;2023-04-25T09:59:55;101588.22;;;10.65;52.47
64200;BME280;50516;52.272;5.136;2023-04-25T10:02:23;101579.13;;;10.86;53.84
64200;BME280;50516;52.272;5.136;2023-04-25T10:04:50;101581.44;;;10.72;52.88
64200;BME280;50516;52.272;5.136;2023-04-25T10:07:18;101581.75;;;10.54;53.27
64200;BME280;50516;52.272;5.136;2023-04-25T10:09:47;101584.03;;;10.62;53.76
64200;BME280;50516;52.272;5.136;2023-04-25T10:12:13;101580.78;;;10.65;53.50
64200;BME280;50516;52.272;5.136;2023-04-25T10:14:39;101580.50;;;10.45;53.11
64200;BME280;50516;52.272;5.136;2023-04-25T10:17:05;101574.34;;;10.76;51.43
64200;BME280;50516;52.272;5.136;2023-04-25T10:19:31;101585.63;;;11.02;52.21
64200;BME280;50516;52.272;5.136;2023-04-25T10:22:03;101583.06;;;11.45;50.27
64200;BME280;50516;52.272;5.136;2023-04-25T10:24:30;101584.00;;;12.26;49.07
64200;BME280;50516;52.272;5.136;2023-04-25T10:26:56;101592.19;;;11.78;49.58
64200;BME280;50516;52.272;5.136;2023-04-25T10:29:24;101597.78;;;10.84;53.93
64200;BME280;50516;52.272;5.136;2023-04-25T10:31:49;101610.06;;;10.03;58.43
64200;BME280;50516;52.272;5.136;2023-04-25T10:34:16;101612.56;;;9.88;60.93
64200;BME280;50516;52.272;5.136;2023-04-25T10:36:42;101612.00;;;9.40;62.58
64200;BME280;50516;52.272;5.136;2023-04-25T10:39:07;101619.72;;;8.74;64.64
64200;BME280;50516;52.272;5.136;2023-04-25T10:41:46;101627.56;;;8.82;64.76
64200;BME280;50516;52.272;5.136;2023-04-25T10:44:13;101635.31;;;8.73;63.49
64200;BME280;50516;52.272;5.136;2023-04-25T10:46:39;101629.97;;;8.79;64.59
64200;BME280;50516;52.272;5.136;2023-04-25T10:49:04;101632.75;;;9.36;61.72
64200;BME280;50516;52.272;5.136;2023-04-25T10:51:34;101626.13;;;9.49;59.86
64200;BME280;50516;52.272;5.136;2023-04-25T10:56:37;101629.91;;;9.77;60.08
64200;BME280;50516;52.272;5.136;2023-04-25T10:59:17;101622.78;;;9.93;59.96
64200;BME280;50516;52.272;5.136;2023-04-25T11:01:46;101623.19;;;10.52;59.78
64200;BME280;50516;52.272;5.136;2023-04-25T11:04:31;101630.25;;;10.87;59.05
64200;BME280;50516;52.272;5.136;2023-04-25T11:09:32;101626.22;;;10.34;55.77
64200;BME280;50516;52.272;5.136;2023-04-25T11:11:59;101621.88;;;10.21;54.10
64200;BME280;50516;52.272;5.136;2023-04-25T11:14:25;101623.47;;;10.34;51.78
64200;BME280;50516;52.272;5.136;2023-04-25T11:16:54;101619.56;;;10.91;53.08
64200;BME280;50516;52.272;5.136;2023-04-25T11:19:23;101613.81;;;11.14;52.22
64200;BME280;50516;52.272;5.136;2023-04-25T11:21:49;101620.72;;;11.44;52.22
64200;BME280;50516;52.272;5.136;2023-04-25T11:24:18;101628.44;;;12.02;55.18
64200;BME280;50516;52.272;5.136;2023-04-25T11:26:46;101628.69;;;11.68;56.50
64200;BME280;50516;52.272;5.136;2023-04-25T11:29:12;101624.75;;;11.09;58.06
64200;BME280;50516;52.272;5.136;2023-04-25T11:31:38;101634.63;;;10.88;58.69
64200;BME280;50516;52.272;5.136;2023-04-25T11:34:03;101634.22;;;10.96;59.05
64200;BME280;50516;52.272;5.136;2023-04-25T11:36:28;101644.41;;;10.06;57.86
64200;BME280;50516;52.272;5.136;2023-04-25T11:38:55;101645.63;;;9.81;60.07
64200;BME280;50516;52.272;5.136;2023-04-25T11:41:21;101648.63;;;9.51;59.73
64200;BME280;50516;52.272;5.136;2023-04-25T11:43:48;101647.56;;;9.81;61.22
64200;BME280;50516;52.272;5.136;2023-04-25T11:46:13;101639.34;;;9.52;61.56
64200;BME280;50516;52.272;5.136;2023-04-25T11:48:42;101649.22;;;9.82;61.80
64200;BME280;50516;52.272;5.136;2023-04-25T11:51:07;101646.78;;;9.68;62.26
64200;BME280;50516;52.272;5.136;2023-04-25T11:53:33;101650.94;;;9.88;60.94
64200;BME280;50516;52.272;5.136;2023-04-25T11:55:58;101639.47;;;10.25;60.52
64200;BME280;50516;52.272;5.136;2023-04-25T11:58:25;101639.81;;;10.85;59.42
64200;BME280;50516;52.272;5.136;2023-04-25T12:00:51;101654.13;;;10.48;58.38
64200;BME280;50516;52.272;5.136;2023-04-25T12:03:17;101647.06;;;10.91;58.79
64200;BME280;50516;52.272;5.136;2023-04-25T12:05:44;101660.75;;;11.08;57.92
64200;BME280;50516;52.272;5.136;2023-04-25T12:08:16;101657.63;;;10.60;50.62
64200;BME280;50516;52.272;5.136;2023-04-25T12:10:44;101648.81;;;10.58;48.22
64200;BME280;50516;52.272;5.136;2023-04-25T12:13:20;101650.31;;;10.15;49.02
64200;BME280;50516;52.272;5.136;2023-04-25T12:15:46;101654.06;;;10.09;49.79
64200;BME280;50516;52.272;5.136;2023-04-25T12:18:12;101644.97;;;10.59;50.57
64200;BME280;50516;52.272;5.136;2023-04-25T12:20:37;101659.97;;;10.51;51.11
64200;BME280;50516;52.272;5.136;2023-04-25T12:23:05;101653.22;;;11.25;50.64
64200;BME280;50516;52.272;5.136;2023-04-25T12:25:40;101651.47;;;11.63;50.90
64200;BME280;50516;52.272;5.136;2023-04-25T12:28:19;101654.84;;;11.21;51.54
64200;BME280;50516;52.272;5.136;2023-04-25T12:33:20;101666.91;;;10.37;51.59
64200;BME280;50516;52.272;5.136;2023-04-25T12:35:46;101664.66;;;10.73;50.97
64200;BME280;50516;52.272;5.136;2023-04-25T12:38:11;101659.09;;;10.68;48.49
64200;BME280;50516;52.272;5.136;2023-04-25T12:40:45;101649.66;;;11.03;49.17
64200;BME280;50516;52.272;5.136;2023-04-25T12:43:10;101665.03;;;11.48;48.31
64200;BME280;50516;52.272;5.136;2023-04-25T12:45:35;101657.94;;;12.07;48.23
64200;BME280;50516;52.272;5.136;2023-04-25T12:48:01;101661.66;;;12.22;46.08
64200;BME280;50516;52.272;5.136;2023-04-25T12:50:26;101671.88;;;12.65;45.67
64200;BME280;50516;52.272;5.136;2023-04-25T12:52:52;101671.69;;;12.87;47.87
64200;BME280;50516;52.272;5.136;2023-04-25T12:55:17;101669.16;;;12.32;48.79
64200;BME280;50516;52.272;5.136;2023-04-25T12:57:42;101674.47;;;12.07;48.45
64200;BME280;50516;52.272;5.136;2023-04-25T13:00:08;101678.38;;;11.34;49.85
64200;BME280;50516;52.272;5.136;2023-04-25T13:02:39;101669.91;;;11.63;51.23
64200;BME280;50516;52.272;5.136;2023-04-25T13:05:05;101668.81;;;11.69;51.98